< < Back
Terminal Aerodrome Forecast


Current Version              Previous Versions:   1  2  3  4  5  6  7  8  9  

Terminal Aerodrome Forecast

745
FTUS42 KGSP 200300 AAA
TAFGSP
TAF AMD
KGSP 200348Z 2004/2024 03010KT P6SM VCSH OVC040
     FM200600 03012KT P6SM OVC040
     FM202100 05011KT P6SM SCT250=

Latest METAR

654
SAUS70 KWBC 201800 RRG
MTRGSP
METAR KGSP 201753Z 03011KT 10SM CLR 19/03 A3023 RMK AO2 SLP231 T01890028
10189 20117 58013


USA.gov is the U.S. government's official web portal to all federal, state and local government web resources and services.